Time;durP1;ratioP1;P1;durP2;ratioP2;P2;SDS_P1;SDS_P2;PMS_P1;PMS_P2;Temp;Humidity;BMP_temperature;BMP_pressure;BME280_temperature;BME280_humidity;BME280_pressure;Samples;Min_cycle;Max_cycle;Signal;HPM_P1;HPM_P2
2021/04/04 00:01:42;;;;;;;9.38;5.70;;;4.20;72.00;;;;;;4886068;29;20115;-74
2021/04/04 00:04:08;;;;;;;8.82;5.45;;;4.20;72.10;;;;;;4898969;29;20044;-73
2021/04/04 00:06:34;;;;;;;11.73;6.85;;;4.20;72.80;;;;;;4891820;29;20475;-74
2021/04/04 00:08:59;;;;;;;7.57;4.88;;;4.20;73.50;;;;;;4896429;29;20039;-75
2021/04/04 00:11:25;;;;;;;10.38;4.60;;;4.20;74.30;;;;;;4896304;29;20032;-73
2021/04/04 00:13:51;;;;;;;9.57;4.47;;;4.20;74.90;;;;;;4893020;29;20407;-76
2021/04/04 00:16:17;;;;;;;9.15;5.13;;;4.20;76.20;;;;;;4904763;29;20033;-75
2021/04/04 00:18:50;;;;;;;9.10;4.50;;;4.20;76.50;;;;;;4878903;29;20140;-78
2021/04/04 00:21:15;;;;;;;8.40;4.40;;;4.10;77.40;;;;;;4878709;29;20079;-74
2021/04/04 00:23:41;;;;;;;8.43;4.70;;;4.10;77.70;;;;;;4888715;29;20044;-73
2021/04/04 00:26:30;;;;;;;8.40;5.10;;;4.10;78.80;;;;;;4894109;29;20033;-74
2021/04/04 00:28:55;;;;;;;7.47;5.10;;;4.10;78.80;;;;;;4898037;29;20039;-74
2021/04/04 00:31:21;;;;;;;9.07;5.30;;;4.10;80.10;;;;;;4887852;29;20033;-74
2021/04/04 00:33:46;;;;;;;7.70;5.22;;;4.10;80.90;;;;;;4886529;29;20112;-74
2021/04/04 00:36:12;;;;;;;9.68;5.50;;;4.10;82.40;;;;;;4891838;29;20055;-76
2021/04/04 00:38:40;;;;;;;7.82;5.60;;;4.00;82.80;;;;;;4900544;29;20099;-74
2021/04/04 00:41:06;;;;;;;8.00;5.10;;;4.00;83.70;;;;;;4896326;29;20042;-74
2021/04/04 00:43:34;;;;;;;12.82;6.93;;;4.00;84.80;;;;;;4894986;29;20132;-75
2021/04/04 00:45:59;;;;;;;12.40;7.32;;;4.00;85.20;;;;;;4895154;29;20063;-73
2021/04/04 00:48:25;;;;;;;16.50;9.10;;;4.00;86.30;;;;;;4889085;29;20084;-76
2021/04/04 00:50:51;;;;;;;15.75;9.52;;;3.90;86.90;;;;;;4893321;29;20033;-75
2021/04/04 00:53:16;;;;;;;14.73;8.43;;;4.00;86.80;;;;;;4895771;29;20032;-74
2021/04/04 00:55:42;;;;;;;11.88;7.93;;;3.90;87.40;;;;;;4900663;29;20028;-73
2021/04/04 00:58:08;;;;;;;14.13;8.77;;;3.90;88.50;;;;;;4889978;29;20025;-74
2021/04/04 01:00:34;;;;;;;12.55;8.60;;;3.90;89.00;;;;;;4898780;29;20108;-74
2021/04/04 01:03:01;;;;;;;10.93;7.15;;;3.80;89.40;;;;;;4897865;29;20036;-73
2021/04/04 01:05:36;;;;;;;12.75;6.97;;;3.30;90.10;;;;;;4891787;29;20032;-73
2021/04/04 01:08:03;;;;;;;10.52;7.32;;;3.70;90.80;;;;;;4894255;29;20032;-73
2021/04/04 01:10:34;;;;;;;9.90;6.30;;;3.70;91.10;;;;;;4893602;29;20491;-73
2021/04/04 01:13:44;;;;;;;9.53;5.70;;;3.80;91.70;;;;;;4883336;29;20044;-73
2021/04/04 01:16:19;;;;;;;9.18;5.80;;;3.70;91.70;;;;;;4863325;29;20867;-73
2021/04/04 01:18:54;;;;;;;9.30;6.53;;;3.70;92.50;;;;;;4879804;29;20112;-72
2021/04/04 01:21:25;;;;;;;9.30;5.38;;;3.60;92.20;;;;;;4871872;29;20056;-75
2021/04/04 01:24:03;;;;;;;11.38;5.32;;;3.60;90.70;;;;;;4887492;29;20123;-74
2021/04/04 01:26:48;;;;;;;10.18;5.85;;;3.60;90.80;;;;;;4887916;29;20056;-73
2021/04/04 01:29:16;;;;;;;9.05;5.97;;;3.50;91.10;;;;;;4882616;29;20040;-73
2021/04/04 01:31:43;;;;;;;8.07;5.82;;;3.50;91.60;;;;;;4886850;29;20032;-74
2021/04/04 01:34:13;;;;;;;8.65;6.18;;;3.50;91.60;;;;;;4899398;29;20068;-75
2021/04/04 01:36:40;;;;;;;10.73;6.47;;;3.50;91.10;;;;;;4888856;29;20041;-74
2021/04/04 01:39:09;;;;;;;8.50;5.65;;;3.50;91.30;;;;;;4869684;29;20439;-76
2021/04/04 01:41:40;;;;;;;7.65;5.43;;;3.50;91.20;;;;;;4885881;29;20044;-75
2021/04/04 01:44:16;;;;;;;10.20;5.28;;;3.50;91.10;;;;;;4889469;29;20071;-75
2021/04/04 01:46:46;;;;;;;6.85;4.75;;;3.50;91.00;;;;;;4888578;29;20112;-74
2021/04/04 01:49:12;;;;;;;7.40;5.10;;;3.40;91.10;;;;;;4893459;29;20037;-75
2021/04/04 01:51:39;;;;;;;6.47;4.95;;;3.40;91.20;;;;;;4884752;29;20061;-75
2021/04/04 01:54:06;;;;;;;7.65;5.15;;;3.40;91.40;;;;;;4891981;29;20052;-73
2021/04/04 01:56:32;;;;;;;9.85;5.13;;;3.40;91.40;;;;;;4895736;29;20033;-76
2021/04/04 01:59:02;;;;;;;7.68;5.40;;;3.30;91.60;;;;;;4901103;29;20044;-75
2021/04/04 02:01:30;;;;;;;9.50;5.38;;;3.30;91.90;;;;;;4890750;29;20025;-76
2021/04/04 02:04:03;;;;;;;8.55;5.35;;;3.20;92.60;;;;;;4871855;29;20052;-74
2021/04/04 02:06:29;;;;;;;7.80;5.60;;;;;;;;;;4895457;29;20079;-74
2021/04/04 02:08:55;;;;;;;8.55;5.70;;;3.20;93.10;;;;;;4892737;29;20119;-77
2021/04/04 02:11:26;;;;;;;6.88;5.18;;;3.20;93.20;;;;;;4895977;29;20029;-73
2021/04/04 02:13:53;;;;;;;;;;;3.20;93.40;;;;;;4895325;29;20321;-75
2021/04/04 02:16:20;;;;;;;9.23;5.60;;;3.10;93.70;;;;;;4892555;29;20002;-75
2021/04/04 02:18:46;;;;;;;9.05;4.80;;;3.10;93.90;;;;;;4897794;29;20051;-73
2021/04/04 02:21:16;;;;;;;8.13;5.72;;;3.10;94.10;;;;;;4897840;29;20020;-74
2021/04/04 02:23:43;;;;;;;8.50;4.60;;;3.10;94.30;;;;;;4888763;29;20132;-73
2021/04/04 02:26:09;;;;;;;8.10;5.07;;;3.10;94.50;;;;;;4890732;29;20033;-73
2021/04/04 02:28:34;;;;;;;7.07;4.65;;;3.10;94.40;;;;;;4889582;29;20112;-73
2021/04/04 02:31:00;;;;;;;7.15;4.95;;;3.10;94.50;;;;;;4886583;29;20428;-75
2021/04/04 02:33:48;;;;;;;7.80;4.15;;;3.10;94.60;;;;;;4901501;29;20047;-75
2021/04/04 02:36:15;;;;;;;8.65;5.05;;;2.90;94.20;;;;;;4881809;29;20440;-79
2021/04/04 02:38:45;;;;;;;7.38;4.70;;;3.10;93.90;;;;;;4905308;29;20020;-82
2021/04/04 02:41:11;;;;;;;7.30;4.82;;;3.10;93.70;;;;;;4890863;29;20035;-77
2021/04/04 02:43:39;;;;;;;7.43;5.28;;;3.10;93.70;;;;;;4897853;29;20052;-74
2021/04/04 02:46:12;;;;;;;8.90;4.63;;;3.10;93.90;;;;;;4899505;29;20021;-75
2021/04/04 02:48:52;;;;;;;6.93;4.60;;;3.10;94.00;;;;;;4896956;29;20029;-73
2021/04/04 02:51:20;;;;;;;7.00;5.05;;;3.00;94.40;;;;;;4892459;29;20108;-77
2021/04/04 02:53:48;;;;;;;6.78;5.10;;;3.00;95.10;;;;;;4901405;29;20029;-75
2021/04/04 02:56:18;;;;;;;7.00;4.80;;;3.00;95.50;;;;;;4899627;29;20069;-75
2021/04/04 02:58:54;;;;;;;8.60;4.90;;;2.90;95.80;;;;;;4899283;29;20028;-77
2021/04/04 03:01:24;;;;;;;8.57;4.97;;;2.80;96.30;;;;;;4892371;29;20420;-77
2021/04/04 03:03:50;;;;;;;7.72;5.35;;;2.90;96.50;;;;;;4898046;29;20091;-80
2021/04/04 03:06:18;;;;;;;6.90;4.90;;;2.80;96.70;;;;;;4902874;29;20032;-79
2021/04/04 03:08:47;;;;;;;7.45;4.80;;;2.70;96.80;;;;;;4897675;29;20039;-72
2021/04/04 03:11:15;;;;;;;7.53;4.88;;;2.80;96.40;;;;;;4888514;29;20032;-75
2021/04/04 03:13:45;;;;;;;7.78;4.78;;;2.80;95.70;;;;;;4890869;29;20163;-76
2021/04/04 03:16:15;;;;;;;6.07;4.10;;;2.80;95.80;;;;;;4891733;29;20043;-72
2021/04/04 03:18:43;;;;;;;7.00;4.78;;;2.80;95.40;;;;;;4890892;29;20033;-73
2021/04/04 03:21:11;;;;;;;7.22;4.38;;;2.80;94.80;;;;;;4889995;29;20032;-73
2021/04/04 03:23:39;;;;;;;6.82;4.75;;;2.80;95.00;;;;;;4894037;29;20036;-74
2021/04/04 03:26:06;;;;;;;6.93;5.05;;;2.80;94.80;;;;;;4889238;29;20041;-74
2021/04/04 03:28:33;;;;;;;6.78;4.63;;;;;;;;;;4891995;29;20084;-73
2021/04/04 03:30:59;;;;;;;7.85;5.07;;;2.80;95.00;;;;;;4886487;29;20040;-77
2021/04/04 03:33:27;;;;;;;7.47;4.82;;;2.70;96.00;;;;;;4897834;29;20033;-75
2021/04/04 03:35:54;;;;;;;9.73;5.28;;;2.70;96.10;;;;;;4900163;29;20526;-77
2021/04/04 03:38:22;;;;;;;8.63;4.97;;;2.70;96.40;;;;;;4895864;29;20053;-74
2021/04/04 03:40:48;;;;;;;7.82;4.82;;;2.60;96.50;;;;;;4892471;29;20036;-73
2021/04/04 03:43:25;;;;;;;8.48;4.95;;;2.60;96.80;;;;;;4899303;29;20076;-75
2021/04/04 03:45:56;;;;;;;6.35;5.13;;;2.60;97.20;;;;;;4892586;29;20032;-73
2021/04/04 03:48:22;;;;;;;9.85;5.18;;;2.60;97.30;;;;;;4885704;29;20080;-73
2021/04/04 03:50:49;;;;;;;7.47;5.13;;;2.60;97.30;;;;;;4887739;29;20156;-73
2021/04/04 03:53:20;;;;;;;6.18;4.85;;;2.60;97.40;;;;;;4887641;29;20028;-73
2021/04/04 03:55:50;;;;;;;8.73;5.38;;;2.60;97.50;;;;;;4891854;29;20024;-74
2021/04/04 03:58:16;;;;;;;8.32;4.80;;;;;;;;;;4885901;29;20237;-76
2021/04/04 04:00:45;;;;;;;7.03;4.38;;;2.60;97.00;;;;;;4895459;29;20028;-75
2021/04/04 04:03:15;;;;;;;5.32;4.25;;;2.60;96.60;;;;;;4898377;29;20040;-72
2021/04/04 04:05:41;;;;;;;8.30;5.57;;;2.60;96.50;;;;;;4894847;29;20514;-74
2021/04/04 04:08:07;;;;;;;5.68;4.38;;;2.60;96.60;;;;;;4893508;29;20116;-72
2021/04/04 04:10:34;;;;;;;7.30;4.50;;;2.60;96.40;;;;;;4896104;29;20059;-73
2021/04/04 04:13:01;;;;;;;6.13;4.15;;;2.60;95.80;;;;;;4893971;29;20102;-75
2021/04/04 04:15:28;;;;;;;6.90;4.45;;;2.60;95.60;;;;;;4896177;29;20021;-75
2021/04/04 04:17:56;;;;;;;9.82;5.22;;;2.50;95.70;;;;;;4894270;29;20041;-73
2021/04/04 04:20:22;;;;;;;7.68;4.75;;;2.60;95.50;;;;;;4893255;29;20024;-73
2021/04/04 04:22:56;;;;;;;5.90;4.63;;;2.60;95.30;;;;;;4884021;29;20051;-74
2021/04/04 04:25:22;;;;;;;6.05;3.92;;;2.60;95.20;;;;;;4897338;29;20037;-73
2021/04/04 04:27:49;;;;;;;6.07;3.92;;;2.60;95.30;;;;;;4904115;29;20104;-73
2021/04/04 04:30:15;;;;;;;7.80;4.70;;;2.60;95.40;;;;;;4890514;29;20035;-73
2021/04/04 04:32:42;;;;;;;6.05;4.60;;;2.50;95.30;;;;;;4902448;29;20081;-76
2021/04/04 04:35:09;;;;;;;7.47;4.85;;;2.60;95.30;;;;;;4904523;29;20116;-72
2021/04/04 04:37:40;;;;;;;6.88;4.07;;;2.60;94.50;;;;;;4895543;29;20052;-74
2021/04/04 04:40:11;;;;;;;7.85;3.97;;;2.60;94.60;;;;;;4902602;29;20101;-73
2021/04/04 04:42:41;;;;;;;6.20;4.05;;;2.50;94.50;;;;;;4889185;29;20032;-73
2021/04/04 04:45:14;;;;;;;10.27;4.70;;;2.60;94.40;;;;;;4896820;29;20056;-73
2021/04/04 04:47:39;;;;;;;6.05;3.83;;;2.60;94.60;;;;;;4898279;29;20033;-73
2021/04/04 04:50:06;;;;;;;6.20;4.07;;;2.60;94.50;;;;;;4902096;29;20039;-75
2021/04/04 04:52:32;;;;;;;5.40;3.78;;;2.60;93.70;;;;;;4892637;29;20480;-74
2021/04/04 04:54:58;;;;;;;7.25;4.25;;;2.50;93.90;;;;;;4896539;29;20035;-73
2021/04/04 04:57:24;;;;;;;5.57;4.50;;;2.60;94.20;;;;;;4898973;29;20028;-72
2021/04/04 04:59:50;;;;;;;6.60;4.10;;;2.60;94.40;;;;;;4887191;29;20063;-72
2021/04/04 05:02:20;;;;;;;8.80;4.25;;;2.60;94.20;;;;;;4890382;29;20555;-77
2021/04/04 05:04:47;;;;;;;5.63;4.20;;;2.50;94.50;;;;;;4899226;29;20041;-72
2021/04/04 05:07:16;;;;;;;7.25;4.60;;;2.60;94.40;;;;;;4893019;29;20033;-78
2021/04/04 05:09:42;;;;;;;6.70;4.55;;;2.50;94.40;;;;;;4898562;29;20032;-72
2021/04/04 05:12:08;;;;;;;6.40;3.95;;;2.60;94.30;;;;;;4874543;29;20025;-73
2021/04/04 05:14:37;;;;;;;5.90;4.60;;;2.60;93.90;;;;;;4890631;29;20036;-73
2021/04/04 05:17:07;;;;;;;7.65;4.20;;;2.70;93.80;;;;;;4895120;29;20047;-73
2021/04/04 05:19:33;;;;;;;6.75;4.13;;;2.80;93.30;;;;;;4890732;29;20037;-74
2021/04/04 05:21:59;;;;;;;6.57;4.07;;;2.90;92.80;;;;;;4898986;29;20049;-74
2021/04/04 05:24:26;;;;;;;6.45;4.53;;;3.00;92.50;;;;;;4886475;29;20507;-72
2021/04/04 05:26:52;;;;;;;6.25;4.53;;;3.20;91.60;;;;;;4896056;29;20035;-73
2021/04/04 05:29:19;;;;;;;7.43;4.63;;;3.40;91.10;;;;;;4880869;29;20088;-71
2021/04/04 05:31:49;;;;;;;8.32;4.40;;;3.50;90.50;;;;;;4887327;29;20031;-74
2021/04/04 05:34:18;;;;;;;6.75;4.78;;;3.50;90.60;;;;;;4896632;29;20021;-74
2021/04/04 05:36:49;;;;;;;7.45;4.55;;;3.80;90.10;;;;;;4892667;29;20033;-75
2021/04/04 05:39:17;;;;;;;7.15;4.28;;;3.90;88.80;;;;;;4886355;29;20045;-72
2021/04/04 05:41:48;;;;;;;7.72;4.85;;;4.00;88.00;;;;;;4893659;29;20029;-74
2021/04/04 05:44:22;;;;;;;6.72;4.30;;;5.00;81.00;;;;;;4891363;29;20051;-75
2021/04/04 05:46:54;;;;;;;6.70;4.63;;;5.10;81.20;;;;;;4894377;29;20024;-72
2021/04/04 05:49:50;;;;;;;6.57;4.15;;;5.70;76.30;;;;;;4884137;29;20539;-74
2021/04/04 05:52:27;;;;;;;6.40;3.45;;;6.10;71.80;;;;;;4879166;29;20447;-72
2021/04/04 05:55:05;;;;;;;8.52;3.55;;;6.70;67.80;;;;;;4888807;29;20029;-73
2021/04/04 05:57:41;;;;;;;4.30;3.65;;;6.70;66.40;;;;;;4889277;29;20071;-71
2021/04/04 06:00:09;;;;;;;5.47;3.92;;;6.90;65.40;;;;;;4889699;29;20033;-72
2021/04/04 06:03:11;;;;;;;6.00;3.83;;;8.60;59.80;;;;;;4876085;29;20032;-73
2021/04/04 06:05:55;;;;;;;4.82;4.28;;;8.90;59.90;;;;;;4883420;29;20030;-75
2021/04/04 06:08:33;;;;;;;5.68;4.55;;;9.00;57.50;;;;;;4887136;29;20027;-73
2021/04/04 06:11:23;;;;;;;5.80;3.92;;;9.50;56.30;;;;;;4880553;29;20033;-79
2021/04/04 06:14:26;;;;;;;5.85;4.38;;;9.80;53.80;;;;;;4880154;29;20108;-73
2021/04/04 06:16:53;;;;;;;6.65;4.63;;;10.20;53.00;;;;;;4889630;29;20106;-73
2021/04/04 06:19:27;;;;;;;6.60;4.60;;;9.90;53.30;;;;;;4885260;29;20518;-75
2021/04/04 06:22:26;;;;;;;5.38;3.92;;;9.90;52.70;;;;;;4888404;29;20084;-73
2021/04/04 06:25:20;;;;;;;5.95;3.80;;;9.70;53.20;;;;;;4882556;29;20045;-74
2021/04/04 06:27:53;;;;;;;4.13;3.00;;;9.20;53.60;;;;;;4885628;29;20036;-74
2021/04/04 06:30:49;;;;;;;3.65;3.13;;;9.20;54.00;;;;;;4887556;29;20077;-74
2021/04/04 06:33:32;;;;;;;5.90;3.08;;;10.00;53.20;;;;;;4889854;29;20072;-75
2021/04/04 06:36:04;;;;;;;5.38;3.08;;;10.60;51.40;;;;;;4881074;29;20059;-75
2021/04/04 06:38:51;;;;;;;3.22;2.88;;;11.50;49.60;;;;;;4892146;29;20148;-75
2021/04/04 06:41:20;;;;;;;3.40;2.60;;;11.90;48.50;;;;;;4889839;29;20079;-73
2021/04/04 06:44:13;;;;;;;4.45;2.50;;;12.70;44.90;;;;;;4888771;29;20045;-72
2021/04/04 06:47:10;;;;;;;4.57;2.90;;;12.80;45.60;;;;;;4890037;29;20025;-74
2021/04/04 06:50:08;;;;;;;3.53;2.60;;;12.70;44.70;;;;;;4886952;29;20490;-74
2021/04/04 06:53:08;;;;;;;4.13;2.47;;;14.00;44.10;;;;;;4890056;29;20154;-76
2021/04/04 06:56:05;;;;;;;3.10;2.80;;;13.30;44.00;;;;;;4894682;29;20096;-74
2021/04/04 06:58:49;;;;;;;4.75;2.90;;;13.00;43.70;;;;;;4884113;29;20033;-74
2021/04/04 07:01:36;;;;;;;4.45;3.05;;;13.60;43.20;;;;;;4871848;29;20028;-74
2021/04/04 07:04:28;;;;;;;6.05;3.30;;;14.80;41.60;;;;;;4890500;29;20041;-81
2021/04/04 07:07:26;;;;;;;5.25;3.30;;;15.60;40.90;;;;;;4883334;29;20044;-80
2021/04/04 07:10:38;;;;;;;5.00;3.55;;;14.60;41.10;;;;;;4892065;29;20500;-80
2021/04/04 07:13:28;;;;;;;5.53;4.10;;;14.60;42.00;;;;;;4884245;29;20085;-80
2021/04/04 07:16:08;;;;;;;5.53;3.42;;;15.10;41.60;;;;;;4863600;29;20029;-82
2021/04/04 07:19:07;;;;;;;5.45;3.78;;;14.60;42.40;;;;;;4886603;29;20399;-82
2021/04/04 07:21:47;;;;;;;7.93;4.18;;;15.30;42.30;;;;;;4885147;29;20358;-81
2021/04/04 07:24:25;;;;;;;4.68;3.45;;;14.50;42.70;;;;;;4890255;29;20044;-80
2021/04/04 07:27:12;;;;;;;10.02;5.25;;;15.30;42.50;;;;;;4889098;29;20036;-83
2021/04/04 07:30:01;;;;;;;4.25;3.15;;;16.20;41.30;;;;;;4887649;29;20026;-84
2021/04/04 07:32:37;;;;;;;6.43;3.45;;;15.70;41.60;;;;;;4872758;29;20072;-80
2021/04/04 07:35:21;;;;;;;4.50;2.95;;;15.00;42.10;;;;;;4898632;29;20036;-75
2021/04/04 07:37:54;;;;;;;8.82;3.95;;;15.90;42.00;;;;;;4895592;29;20039;-73
2021/04/04 07:40:34;;;;;;;7.15;4.53;;;17.00;40.50;;;;;;4895539;29;20032;-76
2021/04/04 07:43:09;;;;;;;4.47;3.33;;;17.30;39.90;;;;;;4891695;29;20040;-75
2021/04/04 07:46:02;;;;;;;13.90;9.35;;;17.30;39.20;;;;;;4899535;29;20053;-76
2021/04/04 07:48:41;;;;;;;4.80;3.83;;;16.30;40.30;;;;;;4905356;29;20029;-75
2021/04/04 07:51:12;;;;;;;3.08;2.72;;;15.90;41.10;;;;;;4908017;29;20031;-77
2021/04/04 07:53:49;;;;;;;4.95;2.97;;;15.20;41.10;;;;;;4913837;29;20036;-80
2021/04/04 07:56:26;;;;;;;5.47;3.45;;;15.10;41.80;;;;;;4909013;29;20040;-78
2021/04/04 07:59:21;;;;;;;5.30;3.10;;;15.40;41.80;;;;;;4910930;29;20036;-77
2021/04/04 08:02:00;;;;;;;6.43;2.60;;;15.50;41.50;;;;;;4905589;29;20027;-75
2021/04/04 08:05:02;;;;;;;3.97;3.00;;;15.90;40.90;;;;;;4903597;29;20130;-77
2021/04/04 08:07:32;;;;;;;4.20;2.63;;;15.50;40.70;;;;;;4886637;29;20029;-81
2021/04/04 08:10:00;;;;;;;7.60;4.10;;;15.20;41.30;;;;;;4912598;29;20127;-78
2021/04/04 08:12:52;;;;;;;7.88;4.75;;;15.00;42.80;;;;;;4908797;29;20040;-87
2021/04/04 08:15:25;;;;;;;5.45;3.67;;;16.50;42.00;;;;;;4913232;29;20056;-83
2021/04/04 08:17:51;;;;;;;7.45;4.10;;;16.40;41.60;;;;;;4906202;29;20472;-78
2021/04/04 08:20:27;;;;;;;4.63;3.22;;;17.20;40.20;;;;;;4911433;29;20028;-80
2021/04/04 08:23:05;;;;;;;5.57;3.50;;;14.70;39.30;;;;;;4903502;29;20473;-74
2021/04/04 08:25:55;;;;;;;5.95;3.33;;;17.10;41.30;;;;;;4902667;29;20051;-73
2021/04/04 08:28:37;;;;;;;7.07;3.80;;;16.20;42.00;;;;;;4896963;29;20091;-74
2021/04/04 08:31:17;;;;;;;5.55;3.90;;;15.90;43.10;;;;;;4905013;29;20043;-74
2021/04/04 08:33:52;;;;;;;6.80;3.70;;;16.20;43.50;;;;;;4902247;29;20060;-73
2021/04/04 08:36:21;;;;;;;8.25;4.05;;;16.90;41.90;;;;;;4903232;29;20032;-75
2021/04/04 08:38:48;;;;;;;7.15;3.95;;;17.00;42.20;;;;;;4905276;29;20028;-71
2021/04/04 08:41:18;;;;;;;6.65;4.03;;;16.60;42.10;;;;;;4902244;29;20119;-72
2021/04/04 08:43:53;;;;;;;5.53;3.47;;;16.10;43.30;;;;;;4908358;29;20048;-74
2021/04/04 08:46:35;;;;;;;7.07;3.92;;;16.30;44.00;;;;;;4906608;29;20115;-73
2021/04/04 08:49:01;;;;;;;8.05;4.50;;;16.30;43.10;;;;;;4905775;29;20031;-74
2021/04/04 08:51:29;;;;;;;7.85;4.65;;;16.30;43.60;;;;;;4906378;29;20386;-75
2021/04/04 08:53:57;;;;;;;6.93;4.18;;;16.80;43.10;;;;;;4908416;29;20060;-73
2021/04/04 08:56:26;;;;;;;7.05;4.15;;;17.10;43.40;;;;;;4908459;29;20486;-73
2021/04/04 08:58:54;;;;;;;6.63;4.00;;;17.20;43.00;;;;;;4896038;29;20032;-75
2021/04/04 09:01:33;;;;;;;7.75;3.85;;;17.00;42.60;;;;;;4908306;29;20059;-75
2021/04/04 09:04:04;;;;;;;8.93;4.32;;;15.90;44.50;;;;;;4902127;29;20052;-74
2021/04/04 09:06:38;;;;;;;7.43;4.35;;;16.30;43.70;;;;;;4909920;29;20114;-74
2021/04/04 09:09:18;;;;;;;8.75;4.75;;;16.10;44.60;;;;;;4902277;29;20029;-75
2021/04/04 09:11:47;;;;;;;8.88;4.72;;;15.80;45.80;;;;;;4904901;29;20029;-74
2021/04/04 09:14:15;;;;;;;7.47;4.65;;;16.10;45.60;;;;;;4904232;29;20610;-73
2021/04/04 09:16:53;;;;;;;8.50;4.82;;;16.90;45.30;;;;;;4902920;29;20393;-74
2021/04/04 09:19:28;;;;;;;8.77;5.28;;;16.90;44.20;;;;;;4908492;29;20087;-74
2021/04/04 09:21:56;;;;;;;9.70;5.40;;;17.00;45.20;;;;;;4908534;29;20032;-74
2021/04/04 09:24:21;;;;;;;10.63;4.75;;;17.40;43.90;;;;;;4908662;29;20073;-73
2021/04/04 09:26:51;;;;;;;8.50;4.65;;;16.70;44.80;;;;;;4906414;29;20052;-76
2021/04/04 09:29:17;;;;;;;5.53;3.92;;;16.70;44.40;;;;;;4916309;29;20036;-77
2021/04/04 09:31:51;;;;;;;8.55;4.13;;;16.90;44.40;;;;;;4908087;29;20079;-74
2021/04/04 09:34:19;;;;;;;10.45;4.97;;;17.70;43.10;;;;;;4906446;29;20029;-76
2021/04/04 09:36:47;;;;;;;7.00;4.18;;;18.40;42.10;;;;;;4916633;29;20024;-75
2021/04/04 09:39:26;;;;;;;7.68;4.78;;;19.60;41.00;;;;;;4903586;29;20040;-75
2021/04/04 09:41:54;;;;;;;6.75;4.55;;;19.40;40.70;;;;;;4902725;29;20032;-76
2021/04/04 09:44:29;;;;;;;8.77;5.07;;;19.70;40.60;;;;;;4904403;29;20052;-75
2021/04/04 09:46:58;;;;;;;9.00;4.65;;;20.70;39.40;;;;;;4885475;29;20731;-75
2021/04/04 09:49:38;;;;;;;7.07;4.22;;;20.20;39.90;;;;;;4901076;29;20037;-78
2021/04/04 09:52:27;;;;;;;8.60;4.50;;;20.20;39.80;;;;;;4903831;29;20043;-74
2021/04/04 09:54:59;;;;;;;7.07;4.53;;;18.10;42.10;;;;;;4896137;29;20064;-73
2021/04/04 09:57:26;;;;;;;8.27;5.50;;;17.90;43.50;;;;;;4899445;29;20032;-74
2021/04/04 09:59:51;;;;;;;6.88;4.60;;;19.90;40.70;;;;;;4903748;29;20387;-73
2021/04/04 10:02:37;;;;;;;7.82;5.03;;;19.60;40.40;;;;;;4906474;29;20036;-78
2021/04/04 10:05:03;;;;;;;7.30;4.80;;;18.00;41.40;;;;;;4907243;29;20064;-76
2021/04/04 10:07:30;;;;;;;7.47;4.38;;;19.80;41.10;;;;;;4893875;29;20491;-77
2021/04/04 10:09:57;;;;;;;9.45;5.00;;;20.20;40.20;;;;;;4908987;29;20043;-78
2021/04/04 10:12:23;;;;;;;9.13;4.90;;;19.40;40.50;;;;;;4905968;29;20047;-76
2021/04/04 10:15:08;;;;;;;11.70;4.95;;;18.10;42.20;;;;;;4917976;29;20243;-82
2021/04/04 10:17:34;;;;;;;9.82;4.90;;;17.80;43.40;;;;;;4912838;29;20058;-80
2021/04/04 10:20:04;;;;;;;8.50;4.50;;;18.80;42.50;;;;;;4915692;29;20043;-77
2021/04/04 10:22:49;;;;;;;7.03;4.75;;;18.10;43.40;;;;;;4912360;29;20108;-79
2021/04/04 10:25:16;;;;;;;11.50;5.88;;;17.00;45.10;;;;;;4895350;29;20040;-82
2021/04/04 10:27:42;;;;;;;7.28;4.80;;;17.50;43.80;;;;;;4897946;29;20041;-79
2021/04/04 10:30:13;;;;;;;9.82;5.53;;;17.60;44.40;;;;;;4903029;29;20032;-82
2021/04/04 10:32:40;;;;;;;10.65;5.85;;;18.10;44.40;;;;;;4908132;29;20056;-83
2021/04/04 10:35:08;;;;;;;7.72;4.75;;;17.90;44.40;;;;;;4891987;29;20068;-78
2021/04/04 10:37:34;;;;;;;9.18;5.07;;;18.80;43.10;;;;;;4885256;29;20032;-82
2021/04/04 10:40:05;;;;;;;6.53;5.15;;;19.30;42.30;;;;;;4885195;29;20036;-83
2021/04/04 10:42:31;;;;;;;11.40;7.82;;;20.10;41.10;;;;;;4893632;29;20547;-80
2021/04/04 10:45:14;;;;;;;10.48;5.88;;;19.10;41.90;;;;;;4900122;29;20052;-79
2021/04/04 10:47:44;;;;;;;10.70;6.40;;;18.10;43.40;;;;;;4895585;29;20060;-82
2021/04/04 10:50:13;;;;;;;15.15;6.68;;;17.40;44.70;;;;;;4885060;29;20047;-80
2021/04/04 10:52:41;;;;;;;12.15;7.50;;;16.30;46.30;;;;;;4905955;29;20032;-80
2021/04/04 10:55:08;;;;;;;10.10;5.20;;;17.50;45.40;;;;;;4885899;29;20064;-76
2021/04/04 10:57:35;;;;;;;11.50;5.10;;;18.50;43.10;;;;;;4906004;29;20083;-81
2021/04/04 11:00:02;;;;;;;12.18;5.43;;;18.10;42.80;;;;;;4908296;29;20048;-77
2021/04/04 11:02:28;;;;;;;8.15;5.78;;;16.10;46.80;;;;;;4907559;29;20146;-80
2021/04/04 11:04:57;;;;;;;10.80;6.05;;;15.90;47.00;;;;;;4896499;29;20047;-74
2021/04/04 11:07:23;;;;;;;8.95;5.70;;;16.20;47.60;;;;;;4907920;29;20055;-79
2021/04/04 11:09:48;;;;;;;10.15;4.97;;;17.30;45.00;;;;;;4901343;29;20044;-79
2021/04/04 11:12:18;;;;;;;8.77;5.00;;;17.10;45.10;;;;;;4891441;29;20391;-81
2021/04/04 11:14:47;;;;;;;10.75;5.95;;;17.90;42.50;;;;;;4909297;29;20107;-79
2021/04/04 11:17:20;;;;;;;14.90;9.15;;;17.80;42.90;;;;;;4907202;29;20040;-79
2021/04/04 11:19:48;;;;;;;10.18;6.82;;;17.60;43.10;;;;;;4913028;29;20103;-75
2021/04/04 11:22:17;;;;;;;7.65;4.22;;;17.30;43.40;;;;;;4910416;29;20027;-79
2021/04/04 11:25:06;;;;;;;8.63;4.38;;;15.80;46.20;;;;;;4911915;29;20036;-80
2021/04/04 11:27:40;;;;;;;7.53;4.53;;;13.90;48.20;;;;;;4892692;29;20024;-77
2021/04/04 11:30:14;;;;;;;9.00;4.60;;;13.80;48.90;;;;;;4894254;29;20036;-79
2021/04/04 11:32:43;;;;;;;11.93;8.38;;;14.00;49.30;;;;;;4900333;29;20070;-83
2021/04/04 11:35:15;;;;;;;10.40;5.97;;;16.60;46.30;;;;;;4913397;29;20036;-79
2021/04/04 11:37:43;;;;;;;7.30;4.75;;;16.60;46.50;;;;;;4913801;29;20044;-79
2021/04/04 11:40:23;;;;;;;6.95;4.28;;;18.10;43.70;;;;;;4912281;29;20051;-77
2021/04/04 11:43:25;;;;;;;6.65;4.45;;;19.60;41.60;;;;;;4907996;29;20036;-75
2021/04/04 11:45:51;;;;;;;7.20;4.03;;;18.50;42.50;;;;;;4914615;29;20108;-75
2021/04/04 11:48:33;;;;;;;11.02;5.95;;;18.00;44.30;;;;;;4912833;29;20087;-80
2021/04/04 11:51:11;;;;;;;12.48;7.60;;;17.70;44.80;;;;;;4901051;29;20513;-81
2021/04/04 11:53:47;;;;;;;11.02;5.85;;;16.20;47.00;;;;;;4908832;29;20030;-75
2021/04/04 11:56:43;;;;;;;9.60;5.15;;;16.50;46.20;;;;;;4908982;29;20058;-78
2021/04/04 11:59:10;;;;;;;6.88;3.60;;;17.70;44.50;;;;;;4906240;29;20040;-80
2021/04/04 12:01:36;;;;;;;8.18;4.90;;;18.60;42.40;;;;;;4908104;29;20487;-79
2021/04/04 12:04:28;;;;;;;10.55;6.43;;;18.30;42.40;;;;;;4904130;29;20104;-76
2021/04/04 12:07:20;;;;;;;8.27;4.07;;;17.30;43.30;;;;;;4909005;29;20036;-78
2021/04/04 12:09:48;;;;;;;8.45;3.80;;;15.90;45.90;;;;;;4907189;29;20035;-80
2021/04/04 12:12:14;;;;;;;10.75;7.65;;;;;;;;;;4917583;29;20123;-82
2021/04/04 12:14:54;;;;;;;7.68;5.53;;;17.30;44.00;;;;;;4907354;29;20032;-80
2021/04/04 12:17:24;;;;;;;10.20;5.85;;;17.40;43.70;;;;;;4909562;29;20033;-79
2021/04/04 12:19:50;;;;;;;10.95;5.32;;;;;;;;;;4905381;29;20051;-79
2021/04/04 12:22:21;;;;;;;9.32;5.53;;;16.60;44.40;;;;;;4911314;29;20029;-81
2021/04/04 12:24:51;;;;;;;10.77;6.20;;;17.60;43.50;;;;;;4909842;29;20473;-83
2021/04/04 12:27:27;;;;;;;8.30;4.00;;;18.30;43.20;;;;;;4909378;29;20024;-78
2021/04/04 12:29:56;;;;;;;6.63;4.70;;;18.10;42.50;;;;;;4893505;29;20071;-81
2021/04/04 12:32:30;;;;;;;4.78;3.70;;;18.00;43.30;;;;;;4910301;29;20028;-80
2021/04/04 12:35:03;;;;;;;8.43;4.43;;;17.60;43.60;;;;;;4905783;29;20089;-83
2021/04/04 12:37:39;;;;;;;9.05;4.47;;;17.50;43.60;;;;;;4920273;29;20052;-80
2021/04/04 12:40:09;;;;;;;9.60;5.10;;;17.10;44.80;;;;;;4912173;29;20040;-83
2021/04/04 12:42:42;;;;;;;13.90;8.03;;;16.90;44.80;;;;;;4915165;29;20028;-79
2021/04/04 12:45:51;;;;;;;7.85;4.38;;;17.50;44.70;;;;;;4912502;29;20343;-79
2021/04/04 12:48:22;;;;;;;7.88;3.85;;;18.20;43.20;;;;;;4918334;29;20040;-82
2021/04/04 12:51:00;;;;;;;8.68;4.93;;;18.20;43.50;;;;;;4899559;29;20043;-78
2021/04/04 12:53:33;;;;;;;9.55;4.35;;;18.70;42.40;;;;;;4905348;29;20167;-78
2021/04/04 12:55:59;;;;;;;10.23;4.82;;;18.70;42.30;;;;;;4901640;29;20039;-76
2021/04/04 12:58:39;;;;;;;5.38;3.83;;;18.70;42.60;;;;;;4901789;29;20160;-81
2021/04/04 13:01:06;;;;;;;11.27;5.47;;;18.00;43.80;;;;;;4902390;29;20029;-81
2021/04/04 13:03:38;;;;;;;7.75;3.70;;;18.10;43.90;;;;;;4907602;29;20304;-79
2021/04/04 13:06:04;;;;;;;8.27;4.03;;;18.60;42.60;;;;;;4907744;29;20174;-81
2021/04/04 13:08:32;;;;;;;7.18;3.83;;;19.00;42.00;;;;;;4907101;29;20395;-77
2021/04/04 13:11:11;;;;;;;6.97;3.60;;;18.70;42.30;;;;;;4904146;29;20086;-78
2021/04/04 13:13:39;;;;;;;10.20;5.68;;;18.50;42.10;;;;;;4906053;29;20032;-79
2021/04/04 13:16:07;;;;;;;10.18;7.18;;;17.10;44.70;;;;;;4908174;29;20482;-81
2021/04/04 13:18:40;;;;;;;8.43;4.07;;;16.40;45.80;;;;;;4912563;29;20028;-80
2021/04/04 13:21:16;;;;;;;9.43;5.00;;;16.70;45.00;;;;;;4907844;29;20031;-81
2021/04/04 13:23:53;;;;;;;10.15;4.82;;;16.60;45.80;;;;;;4909118;29;20095;-77